createdAt,value
2022-10-04T00:01:58.584Z,3.83
2022-10-04T00:04:47.525Z,7.15
2022-10-04T00:07:14.323Z,3.70
2022-10-04T00:12:22.642Z,7.55
2022-10-04T00:15:00.635Z,4.87
2022-10-04T00:17:31.752Z,4.65
2022-10-04T00:19:59.029Z,5.50
2022-10-04T00:22:30.398Z,6.55
2022-10-04T00:25:07.487Z,4.50
2022-10-04T00:27:38.425Z,3.47
2022-10-04T00:30:05.218Z,4.18
2022-10-04T00:35:00.282Z,6.20
2022-10-04T00:37:28.155Z,3.20
2022-10-04T00:40:17.073Z,5.55
2022-10-04T00:42:43.882Z,5.72
2022-10-04T00:48:31.416Z,5.97
2022-10-04T00:51:19.657Z,5.00
2022-10-04T00:56:23.311Z,4.80
2022-10-04T00:58:57.580Z,7.28
2022-10-04T01:01:26.937Z,6.37
2022-10-04T01:03:54.699Z,5.97
2022-10-04T01:06:22.168Z,5.00
2022-10-04T01:08:52.234Z,4.68
2022-10-04T01:11:22.337Z,7.32
2022-10-04T01:14:00.944Z,5.93
2022-10-04T01:16:29.547Z,6.25
2022-10-04T01:18:56.484Z,4.85
2022-10-04T01:21:29.765Z,4.07
2022-10-04T01:23:57.420Z,5.72
2022-10-04T01:26:30.398Z,6.35
2022-10-04T01:29:02.620Z,4.70
2022-10-04T01:31:30.852Z,4.35
2022-10-04T01:33:58.379Z,6.72
2022-10-04T01:36:25.622Z,4.78
2022-10-04T01:38:52.493Z,5.78
2022-10-04T01:41:22.465Z,9.23
2022-10-04T01:43:53.832Z,6.28
2022-10-04T01:46:27.378Z,7.75
2022-10-04T01:48:55.576Z,5.25
2022-10-04T01:51:27.115Z,4.18
2022-10-04T01:54:00.941Z,6.53
2022-10-04T01:56:31.959Z,4.53
2022-10-04T01:59:02.783Z,6.07
2022-10-04T02:01:38.540Z,6.55
2022-10-04T02:04:22.426Z,5.45
2022-10-04T02:06:54.331Z,5.20
2022-10-04T02:09:34.106Z,5.87
2022-10-04T02:12:01.620Z,5.60
2022-10-04T02:14:33.320Z,4.97
2022-10-04T02:17:02.311Z,4.20
2022-10-04T02:19:35.448Z,4.70
2022-10-04T02:22:04.398Z,5.90
2022-10-04T02:24:37.882Z,4.80
2022-10-04T02:27:05.973Z,5.12
2022-10-04T02:29:33.111Z,5.32
2022-10-04T02:32:19.137Z,7.03
2022-10-04T02:34:47.936Z,4.07
2022-10-04T02:37:15.482Z,4.93
2022-10-04T02:39:54.049Z,5.30
2022-10-04T02:42:48.038Z,5.03
2022-10-04T02:45:38.143Z,5.18
2022-10-04T02:48:13.825Z,5.50
2022-10-04T02:50:46.282Z,4.80
2022-10-04T02:53:19.705Z,8.38
2022-10-04T02:55:47.791Z,4.62
2022-10-04T02:58:18.524Z,4.53
2022-10-04T03:00:51.357Z,3.28
2022-10-04T03:03:32.210Z,6.40
2022-10-04T03:06:11.513Z,3.75
2022-10-04T03:08:58.222Z,3.83
2022-10-04T03:11:28.218Z,3.00
2022-10-04T03:13:57.439Z,6.25
2022-10-04T03:16:26.440Z,8.68
2022-10-04T03:18:57.228Z,5.37
2022-10-04T03:21:25.114Z,3.37
2022-10-04T03:23:52.936Z,5.03
2022-10-04T03:26:39.319Z,5.62
2022-10-04T03:29:10.423Z,4.65
2022-10-04T03:31:43.509Z,5.45
2022-10-04T03:34:15.105Z,3.42
2022-10-04T03:36:42.142Z,4.45
2022-10-04T03:39:11.577Z,7.45
2022-10-04T03:41:40.425Z,3.33
2022-10-04T03:44:13.544Z,3.53
2022-10-04T03:46:40.681Z,2.72
2022-10-04T03:49:08.428Z,5.65
2022-10-04T03:51:35.382Z,6.12
2022-10-04T03:54:07.146Z,3.50
2022-10-04T03:56:36.024Z,2.47
2022-10-04T03:59:04.977Z,4.97
2022-10-04T04:01:40.978Z,5.20
2022-10-04T04:04:22.284Z,3.17
2022-10-04T04:07:02.176Z,3.37
2022-10-04T04:09:43.408Z,3.53
2022-10-04T04:12:37.036Z,6.10
2022-10-04T04:15:07.372Z,2.40
2022-10-04T04:17:37.708Z,5.32
2022-10-04T04:20:08.410Z,3.67
2022-10-04T04:22:36.532Z,3.67
2022-10-04T04:25:06.325Z,3.92
2022-10-04T04:27:35.171Z,3.12
2022-10-04T04:30:04.240Z,4.45
2022-10-04T04:32:35.721Z,5.20
2022-10-04T04:35:09.029Z,4.20
2022-10-04T04:37:36.840Z,7.68
2022-10-04T04:40:21.322Z,5.90
2022-10-04T04:42:49.272Z,3.95
2022-10-04T04:45:19.967Z,5.62
2022-10-04T04:47:50.635Z,3.95
2022-10-04T04:50:18.544Z,5.70
2022-10-04T04:52:48.467Z,5.20
2022-10-04T04:55:22.731Z,5.00
2022-10-04T04:57:51.052Z,5.32
2022-10-04T05:00:21.270Z,4.80
2022-10-04T05:02:58.767Z,6.47
2022-10-04T05:05:35.162Z,3.03
2022-10-04T05:08:11.368Z,4.00
2022-10-04T05:10:42.550Z,5.12
2022-10-04T05:13:10.824Z,4.22
2022-10-04T05:15:40.240Z,4.87
2022-10-04T05:18:30.691Z,3.72
2022-10-04T05:21:03.500Z,3.22
2022-10-04T05:23:30.379Z,4.22
2022-10-04T05:26:00.538Z,5.97
2022-10-04T05:28:27.666Z,4.82
2022-10-04T05:31:10.652Z,4.90
2022-10-04T05:33:45.540Z,4.62
2022-10-04T05:36:13.891Z,6.10
2022-10-04T05:39:05.421Z,6.32
2022-10-04T05:41:40.174Z,9.68
2022-10-04T05:44:35.086Z,7.57
2022-10-04T05:47:03.393Z,9.07
2022-10-04T05:49:52.704Z,7.78
2022-10-04T05:52:30.634Z,6.82
2022-10-04T05:55:27.356Z,3.33
2022-10-04T05:58:06.677Z,3.62
2022-10-04T06:00:46.201Z,4.62
2022-10-04T06:03:16.038Z,3.75
2022-10-04T06:06:01.796Z,3.53
2022-10-04T06:08:35.006Z,5.95
2022-10-04T06:11:06.238Z,3.10
2022-10-04T06:13:40.454Z,6.78
2022-10-04T06:16:22.590Z,2.53
2022-10-04T06:19:15.263Z,2.58
2022-10-04T06:22:23.103Z,5.30
2022-10-04T06:25:10.871Z,3.58
2022-10-04T06:27:50.175Z,4.12
2022-10-04T06:30:19.241Z,3.42
2022-10-04T06:33:24.068Z,4.70
2022-10-04T06:36:08.893Z,1.58
2022-10-04T06:38:56.524Z,4.03
2022-10-04T06:41:25.892Z,5.87
2022-10-04T06:44:12.923Z,6.53
2022-10-04T06:46:48.054Z,3.37
2022-10-04T06:49:33.588Z,3.85
2022-10-04T06:52:16.638Z,4.82
2022-10-04T06:54:50.370Z,4.30
2022-10-04T06:57:17.147Z,5.97
2022-10-04T07:02:22.397Z,6.35
2022-10-04T07:05:20.333Z,3.22
2022-10-04T07:08:06.658Z,6.70
2022-10-04T07:10:50.717Z,3.80
2022-10-04T07:13:39.126Z,4.57
2022-10-04T07:16:11.345Z,9.20
2022-10-04T07:19:01.984Z,6.53
2022-10-04T07:21:40.680Z,4.37
2022-10-04T07:24:10.442Z,7.43
2022-10-04T07:26:49.743Z,6.60
2022-10-04T07:29:23.678Z,4.05
2022-10-04T07:32:07.036Z,4.55
2022-10-04T07:34:47.083Z,3.42
2022-10-04T07:37:14.716Z,3.58
2022-10-04T07:39:53.519Z,3.10
2022-10-04T07:42:35.171Z,4.75
2022-10-04T07:45:21.022Z,2.65
2022-10-04T07:47:48.330Z,1.75
2022-10-04T07:50:21.403Z,4.85
2022-10-04T07:53:15.454Z,7.03
2022-10-04T07:56:10.109Z,5.80
2022-10-04T07:59:19.778Z,4.45
2022-10-04T08:02:01.463Z,2.95
2022-10-04T08:04:55.657Z,6.40
2022-10-04T08:07:53.086Z,4.15
2022-10-04T08:10:48.759Z,3.33
2022-10-04T08:13:41.813Z,5.68
2022-10-04T08:16:37.360Z,5.43
2022-10-04T08:19:38.551Z,5.32
2022-10-04T08:22:23.740Z,4.87
2022-10-04T08:25:01.607Z,5.03
2022-10-04T08:28:09.236Z,4.45
2022-10-04T08:31:10.012Z,3.92
2022-10-04T08:34:12.902Z,8.07
2022-10-04T08:36:50.345Z,6.20
2022-10-04T08:39:57.314Z,3.75
2022-10-04T08:42:34.190Z,5.93
2022-10-04T08:45:32.661Z,4.30
2022-10-04T08:48:30.535Z,3.83
2022-10-04T08:51:00.392Z,5.68
2022-10-04T08:53:49.178Z,4.90
2022-10-04T08:56:41.539Z,7.30
2022-10-04T08:59:17.758Z,5.35
2022-10-04T09:01:47.457Z,4.07
2022-10-04T09:04:45.426Z,8.27
2022-10-04T09:07:27.486Z,4.35
2022-10-04T09:10:25.160Z,2.42
2022-10-04T09:13:07.228Z,5.65
2022-10-04T09:15:52.470Z,3.22
2022-10-04T09:19:09.120Z,4.90
2022-10-04T09:22:13.789Z,5.20
2022-10-04T09:24:52.651Z,4.85
2022-10-04T09:27:56.997Z,2.92
2022-10-04T09:30:59.185Z,4.90
2022-10-04T09:33:44.074Z,4.82
2022-10-04T09:36:23.098Z,4.37
2022-10-04T09:39:11.527Z,2.92
2022-10-04T09:42:04.742Z,6.70
2022-10-04T09:45:09.790Z,4.53
2022-10-04T09:48:14.952Z,11.45
2022-10-04T09:51:13.329Z,4.55
2022-10-04T09:56:19.501Z,4.10
2022-10-04T09:59:04.359Z,3.87
2022-10-04T10:01:42.645Z,5.00
2022-10-04T10:04:30.055Z,7.62
2022-10-04T10:07:28.395Z,10.05
2022-10-04T10:13:14.139Z,6.75
2022-10-04T10:15:43.664Z,5.22
2022-10-04T10:18:41.045Z,5.43
2022-10-04T10:21:21.875Z,6.57
2022-10-04T10:24:27.121Z,6.03
2022-10-04T10:26:56.553Z,3.40
2022-10-04T10:29:32.375Z,5.82
2022-10-04T10:32:04.526Z,5.65
2022-10-04T10:34:52.749Z,6.50
2022-10-04T10:37:49.108Z,7.10
2022-10-04T10:40:37.817Z,6.25
2022-10-04T10:43:09.811Z,5.18
2022-10-04T10:45:52.809Z,3.60
2022-10-04T10:48:47.026Z,5.82
2022-10-04T10:51:20.675Z,5.05
2022-10-04T10:54:25.407Z,5.20
2022-10-04T10:57:59.399Z,4.60
2022-10-04T11:00:47.967Z,4.68
2022-10-04T11:03:27.269Z,7.35
2022-10-04T11:06:16.917Z,5.70
2022-10-04T11:09:04.809Z,5.85
2022-10-04T11:11:50.273Z,5.97
2022-10-04T11:14:42.482Z,4.60
2022-10-04T11:17:15.595Z,2.78
2022-10-04T11:20:11.364Z,8.65
2022-10-04T11:23:00.309Z,4.80
2022-10-04T11:25:55.062Z,7.62
2022-10-04T11:29:29.515Z,3.55
2022-10-04T11:32:02.140Z,4.90
2022-10-04T11:35:03.005Z,7.30
2022-10-04T11:38:15.934Z,5.72
2022-10-04T11:40:48.706Z,5.47
2022-10-04T11:43:43.108Z,4.25
2022-10-04T11:46:34.823Z,5.82
2022-10-04T11:49:46.301Z,4.93
2022-10-04T11:52:44.270Z,6.03
2022-10-04T11:55:39.089Z,4.85
2022-10-04T11:58:32.922Z,7.45
2022-10-04T12:01:39.046Z,3.58
2022-10-04T12:04:53.877Z,6.10
2022-10-04T12:07:46.729Z,5.95
2022-10-04T12:10:28.295Z,4.70
2022-10-04T12:13:40.509Z,5.25
2022-10-04T12:16:30.055Z,5.72
2022-10-04T12:19:27.655Z,3.87
2022-10-04T12:22:39.584Z,3.42
2022-10-04T12:25:32.376Z,7.43
2022-10-04T12:27:59.697Z,7.12
2022-10-04T12:30:36.492Z,4.72
2022-10-04T12:33:15.415Z,6.72
2022-10-04T12:36:20.810Z,5.25
2022-10-04T12:39:08.572Z,7.70
2022-10-04T12:44:27.231Z,6.78
2022-10-04T12:47:09.668Z,6.85
2022-10-04T12:50:04.791Z,10.80
2022-10-04T12:52:47.468Z,6.62
2022-10-04T12:55:38.755Z,3.62
2022-10-04T12:58:39.080Z,4.40
2022-10-04T13:01:46.363Z,6.20
2022-10-04T13:08:07.077Z,6.20
2022-10-04T13:11:05.466Z,3.28
2022-10-04T13:13:41.517Z,3.50
2022-10-04T13:19:29.801Z,4.57
2022-10-04T13:22:06.435Z,4.40
2022-10-04T13:25:00.509Z,5.93
2022-10-04T13:27:48.483Z,4.45
2022-10-04T13:30:43.331Z,4.97
2022-10-04T13:33:10.269Z,5.12
2022-10-04T13:35:55.035Z,5.90
2022-10-04T13:38:32.936Z,6.82
2022-10-04T13:41:20.754Z,5.68
2022-10-04T13:46:32.375Z,6.47
2022-10-04T13:49:25.929Z,7.70
2022-10-04T13:52:17.471Z,4.62
2022-10-04T13:55:13.591Z,3.42
2022-10-04T13:57:50.274Z,6.57
2022-10-04T14:00:39.340Z,6.07
2022-10-04T14:03:28.276Z,5.57
2022-10-04T14:06:08.518Z,7.65
2022-10-04T14:09:09.398Z,5.82
2022-10-04T14:11:54.439Z,6.78
2022-10-04T14:14:39.423Z,4.87
2022-10-04T14:17:23.883Z,4.82
2022-10-04T14:20:08.414Z,6.22
2022-10-04T14:22:53.905Z,4.60
2022-10-04T14:25:45.321Z,3.00
2022-10-04T14:28:45.678Z,8.57
2022-10-04T14:31:27.878Z,2.35
2022-10-04T14:34:25.844Z,4.00
2022-10-04T14:36:58.693Z,3.50
2022-10-04T14:39:44.034Z,4.80
2022-10-04T14:42:31.374Z,3.90
2022-10-04T14:45:35.389Z,4.80
2022-10-04T14:48:19.604Z,3.85
2022-10-04T14:51:15.077Z,4.37
2022-10-04T14:54:10.599Z,4.55
2022-10-04T14:56:51.219Z,4.45
2022-10-04T14:59:27.199Z,3.03
2022-10-04T15:02:12.177Z,8.55
2022-10-04T15:04:58.409Z,4.72
2022-10-04T15:07:49.375Z,5.37
2022-10-04T15:10:34.251Z,5.10
2022-10-04T15:13:11.866Z,5.47
2022-10-04T15:16:13.692Z,5.05
2022-10-04T15:18:54.792Z,5.40
2022-10-04T15:21:33.139Z,5.05
2022-10-04T15:24:31.356Z,6.60
2022-10-04T15:30:11.931Z,3.70
2022-10-04T15:33:00.384Z,8.55
2022-10-04T15:35:33.174Z,5.87
2022-10-04T15:38:24.547Z,5.82
2022-10-04T15:41:04.636Z,5.00
2022-10-04T15:43:34.461Z,4.62
2022-10-04T15:46:05.007Z,4.68
2022-10-04T15:48:34.639Z,8.48
2022-10-04T15:51:14.055Z,4.28
2022-10-04T15:54:26.471Z,5.12
2022-10-04T15:56:56.479Z,5.78
2022-10-04T15:59:36.895Z,5.75
2022-10-04T16:02:29.012Z,6.85
2022-10-04T16:05:03.488Z,8.35
2022-10-04T16:07:55.909Z,9.00
2022-10-04T16:10:58.755Z,8.68
2022-10-04T16:13:49.668Z,7.00
2022-10-04T16:16:26.166Z,7.05
2022-10-04T16:19:09.987Z,6.75
2022-10-04T16:21:52.016Z,6.30
2022-10-04T16:24:18.807Z,9.10
2022-10-04T16:26:51.444Z,6.28
2022-10-04T16:29:43.665Z,6.05
2022-10-04T16:32:10.453Z,8.93
2022-10-04T16:34:45.680Z,7.93
2022-10-04T16:37:30.743Z,11.32
2022-10-04T16:40:09.669Z,8.35
2022-10-04T16:42:45.249Z,175.40
2022-10-04T16:45:12.439Z,130.65
2022-10-04T16:47:56.904Z,48.00
2022-10-04T16:50:51.731Z,24.83
2022-10-04T16:53:47.922Z,18.55
2022-10-04T16:56:18.786Z,29.65
2022-10-04T16:59:00.697Z,36.90
2022-10-04T17:02:00.769Z,27.45
2022-10-04T17:04:36.881Z,27.90
2022-10-04T17:07:14.725Z,26.08
2022-10-04T17:10:26.670Z,27.65
2022-10-04T17:13:21.550Z,23.48
2022-10-04T17:15:57.648Z,22.90
2022-10-04T17:18:51.373Z,19.87
2022-10-04T17:21:49.002Z,31.92
2022-10-04T17:24:20.174Z,35.33
2022-10-04T17:27:11.682Z,30.40
2022-10-04T17:30:11.779Z,16.00
2022-10-04T17:33:16.176Z,13.68
2022-10-04T17:36:07.109Z,13.68
2022-10-04T17:38:55.221Z,20.60
2022-10-04T17:41:28.090Z,18.67
2022-10-04T17:44:26.077Z,18.40
2022-10-04T17:47:15.920Z,19.20
2022-10-04T17:50:18.629Z,17.48
2022-10-04T17:53:08.657Z,15.93
2022-10-04T17:55:53.098Z,20.55
2022-10-04T17:58:24.476Z,15.55
2022-10-04T18:00:57.072Z,22.00
2022-10-04T18:03:32.153Z,11.50
2022-10-04T18:06:02.816Z,11.35
2022-10-04T18:08:38.460Z,10.63
2022-10-04T18:11:20.448Z,10.48
2022-10-04T18:13:51.423Z,10.90
2022-10-04T18:16:29.224Z,10.25
2022-10-04T18:18:56.332Z,8.90
2022-10-04T18:21:32.569Z,10.70
2022-10-04T18:24:20.070Z,8.23
2022-10-04T18:27:01.123Z,9.52
2022-10-04T18:29:43.669Z,14.40
2022-10-04T18:32:31.767Z,24.77
2022-10-04T18:35:01.690Z,26.62
2022-10-04T18:37:34.004Z,22.60
2022-10-04T18:40:16.286Z,25.17
2022-10-04T18:42:50.030Z,27.92
2022-10-04T18:45:26.029Z,16.40
2022-10-04T18:47:53.704Z,11.80
2022-10-04T18:50:20.535Z,15.77
2022-10-04T18:53:24.710Z,11.90
2022-10-04T18:56:03.587Z,11.90
2022-10-04T18:58:59.342Z,9.10
2022-10-04T19:02:03.334Z,11.15
2022-10-04T19:05:13.693Z,7.90
2022-10-04T19:07:43.013Z,8.63
2022-10-04T19:10:42.796Z,11.12
2022-10-04T19:13:23.531Z,8.90
2022-10-04T19:16:15.819Z,10.38
2022-10-04T19:18:54.309Z,14.50
2022-10-04T19:21:27.216Z,10.48
2022-10-04T19:24:18.986Z,11.95
2022-10-04T19:26:48.633Z,11.55
2022-10-04T19:29:31.240Z,9.82
2022-10-04T19:32:33.816Z,10.57
2022-10-04T19:35:03.628Z,13.62
2022-10-04T19:37:40.378Z,17.30
2022-10-04T19:40:36.350Z,13.82
2022-10-04T19:43:10.745Z,9.27
2022-10-04T19:46:09.423Z,9.15
2022-10-04T19:48:50.101Z,10.02
2022-10-04T19:51:45.992Z,8.95
2022-10-04T19:54:15.895Z,10.57
2022-10-04T19:56:47.291Z,12.77
2022-10-04T19:59:19.225Z,9.82
2022-10-04T20:01:46.402Z,9.63
2022-10-04T20:04:35.483Z,11.27
2022-10-04T20:07:20.681Z,8.60
2022-10-04T20:10:08.848Z,8.75
2022-10-04T20:12:45.165Z,11.85
2022-10-04T20:15:18.219Z,23.60
2022-10-04T20:17:47.665Z,9.80
2022-10-04T20:20:17.490Z,7.75
2022-10-04T20:22:50.496Z,9.98
2022-10-04T20:25:49.514Z,9.60
2022-10-04T20:28:43.471Z,10.00
2022-10-04T20:31:13.202Z,8.43
2022-10-04T20:33:40.322Z,8.90
2022-10-04T20:36:12.291Z,12.77
2022-10-04T20:38:54.243Z,9.80
2022-10-04T20:41:53.210Z,10.38
2022-10-04T20:44:43.131Z,14.15
2022-10-04T20:47:20.130Z,13.15
2022-10-04T20:49:47.095Z,13.10
2022-10-04T20:52:15.265Z,10.85
2022-10-04T20:54:53.415Z,8.35
2022-10-04T20:57:24.088Z,8.27
2022-10-04T20:59:55.575Z,8.10
2022-10-04T21:02:24.778Z,6.65
2022-10-04T21:04:54.325Z,8.13
2022-10-04T21:07:23.404Z,8.65
2022-10-04T21:09:51.026Z,6.93
2022-10-04T21:12:32.671Z,13.25
2022-10-04T21:15:13.324Z,8.25
2022-10-04T21:17:40.186Z,10.07
2022-10-04T21:20:14.664Z,9.30
2022-10-04T21:22:42.208Z,8.27
2022-10-04T21:25:31.296Z,10.15
2022-10-04T21:28:24.139Z,10.00
2022-10-04T21:30:51.099Z,12.13
2022-10-04T21:33:17.940Z,10.50
2022-10-04T21:35:44.841Z,9.35
2022-10-04T21:38:11.756Z,8.70
2022-10-04T21:40:38.674Z,9.50
2022-10-04T21:43:05.484Z,10.23
2022-10-04T21:47:59.058Z,8.65
2022-10-04T21:52:52.629Z,9.05
2022-10-04T21:55:19.531Z,10.57
2022-10-04T21:57:46.447Z,10.52
2022-10-04T22:00:13.639Z,10.93
2022-10-04T22:02:40.510Z,10.43
2022-10-04T22:05:07.640Z,12.37
2022-10-04T22:07:34.521Z,12.02
2022-10-04T22:10:01.402Z,10.35
2022-10-04T22:12:28.266Z,8.82
2022-10-04T22:14:55.170Z,10.32
2022-10-04T22:17:22.019Z,8.27
2022-10-04T22:19:50.051Z,10.65
2022-10-04T22:22:17.422Z,9.93
2022-10-04T22:24:44.395Z,9.18
2022-10-04T22:27:15.849Z,8.07
2022-10-04T22:29:43.345Z,7.12
2022-10-04T22:32:25.944Z,11.75
2022-10-04T22:34:59.106Z,9.95
2022-10-04T22:37:26.175Z,10.23
2022-10-04T22:39:53.280Z,9.90
2022-10-04T22:42:21.312Z,7.10
2022-10-04T22:44:48.151Z,8.18
2022-10-04T22:47:15.530Z,7.20
2022-10-04T22:49:44.504Z,8.77
2022-10-04T22:52:15.524Z,6.28
2022-10-04T22:54:47.483Z,8.48
2022-10-04T22:57:15.899Z,8.77
2022-10-04T22:59:47.487Z,6.57
2022-10-04T23:02:18.277Z,7.37
2022-10-04T23:05:18.250Z,9.63
2022-10-04T23:07:46.299Z,12.27
2022-10-04T23:10:15.089Z,8.65
2022-10-04T23:12:45.515Z,8.32
2022-10-04T23:15:18.458Z,7.35
2022-10-04T23:23:23.649Z,10.23
2022-10-04T23:25:51.152Z,6.45
2022-10-04T23:28:19.242Z,8.30
2022-10-04T23:30:50.270Z,7.53
2022-10-04T23:33:20.431Z,7.45
2022-10-04T23:35:48.351Z,6.25
2022-10-04T23:38:17.353Z,5.78
2022-10-04T23:40:45.541Z,6.70
2022-10-04T23:43:22.152Z,6.53
2022-10-04T23:45:49.051Z,7.07
2022-10-04T23:48:22.688Z,8.48
2022-10-04T23:50:50.166Z,7.75
2022-10-04T23:53:24.254Z,6.43
2022-10-04T23:55:51.153Z,6.45
